Skip Navigation LinksHome page > Weather > Current weather Skip Navigation Links

Current Weather

Chicago O'Hare Intl, Chicago

For information only: do not use for flight planning or navigation.
Latest weather
Observation time Tuesday, December 1, 2020 8:51 AM CST
Local time Tuesday, December 1, 2020 9:41 AM CST
Flight conditions Marginal Visual Meteorological Conditions
Winds
Wind direction Northwest (320°)
Wind speed 12 mph
Visibility 10 mi.
Sky condition
Ceiling 2,500 ft. overcast
Cloud layer overcast 2,500 ft.
Temperature 27°F
Dewpoint 17°F
Altimeter 30.05 in.Hg
Pressure change last 3 hours-0.04 in.Hg
Pressure rising more quickly
Derived measurements
Relative humidity 66%
Wind chill 17°F
Density altitude -1616 ft.
Sea-level pressure 30.07 in.Hg
Remarks
Automated weather observing station with precipitation discriminator.
METAR KORD 011451Z 32010KT 10SM OVC025 M03/M08 A3005 RMK AO2 SLP183 T10281083 53013

Settings

Location code

InnerDrive.Weather 4.0.6770.0 Release CLR 4.0.30319.42000
Copyright ©2018 Inner Drive Technology. All rights reserved. Portions Copyright ©1986-2018 David Braverman.

Find weather

Site navigation


Skip Navigation Links

Place info

Page info

PayPal - The safer, easier way to pay online!

Return home.

Copyright ©2020 Inner Drive Technology. Purveyors of fine, hand-crafted computer software. Page printed 2020-12-01T15:41:12 UTC.